Time;durP1;ratioP1;P1;durP2;ratioP2;P2;SDS_P1;SDS_P2;PMS_P1;PMS_P2;Temp;Humidity;BMP_temperature;BMP_pressure;BME280_temperature;BME280_humidity;BME280_pressure;Samples;Min_cycle;Max_cycle;Signal;HPM_P1;HPM_P2
2022/03/13 00:00:46;;;;;;;32.15;19.17;;;7.40;99.90;;;;;;5017485;28;20068;-81
2022/03/13 00:03:13;;;;;;;35.38;19.33;;;7.40;99.90;;;;;;5006127;28;20061;-81
2022/03/13 00:05:41;;;;;;;37.80;18.58;;;7.40;99.90;;;;;;5017288;28;20469;-81
2022/03/13 00:08:32;;;;;;;35.10;20.58;;;7.40;99.90;;;;;;5017273;28;20041;-81
2022/03/13 00:11:01;;;;;;;32.40;17.77;;;7.40;99.90;;;;;;5017688;28;20503;-81
2022/03/13 00:13:32;;;;;;;34.55;19.52;;;7.40;99.90;;;;;;5017256;28;20076;-81
2022/03/13 00:16:08;;;;;;;35.78;19.73;;;7.40;99.90;;;;;;5017353;28;20385;-84
2022/03/13 00:18:41;;;;;;;36.47;19.55;;;7.40;99.90;;;;;;5017106;28;20064;-81
2022/03/13 00:21:08;;;;;;;33.15;18.63;;;7.40;99.90;;;;;;5016892;28;20046;-81
2022/03/13 00:23:35;;;;;;;39.40;19.52;;;7.40;99.90;;;;;;5017362;28;20045;-81
2022/03/13 00:26:02;;;;;;;39.17;20.35;;;7.40;99.90;;;;;;5016266;28;20061;-81
2022/03/13 00:28:28;;;;;;;33.70;19.17;;;7.40;99.90;;;;;;5016696;28;20053;-82
2022/03/13 00:30:54;;;;;;;32.92;18.77;;;7.40;99.90;;;;;;5017138;28;20175;-81
2022/03/13 00:33:20;;;;;;;34.03;19.77;;;7.40;99.90;;;;;;5016799;28;20404;-81
2022/03/13 00:35:46;;;;;;;34.10;18.88;;;7.40;99.90;;;;;;5034626;28;20045;-81
2022/03/13 00:38:12;;;;;;;34.58;18.70;;;7.40;99.90;;;;;;5016790;28;20046;-81
2022/03/13 00:40:38;;;;;;;34.95;20.15;;;7.40;99.90;;;;;;5016331;28;20045;-81
2022/03/13 00:43:04;;;;;;;36.65;19.73;;;7.40;99.90;;;;;;5016539;28;20049;-81
2022/03/13 00:45:30;;;;;;;33.22;18.15;;;7.40;99.90;;;;;;5034417;28;20049;-81
2022/03/13 00:47:56;;;;;;;36.55;19.70;;;7.40;99.90;;;;;;5016848;28;20041;-80
2022/03/13 00:50:23;;;;;;;32.25;18.92;;;7.40;99.90;;;;;;5016524;28;20041;-80
2022/03/13 00:52:48;;;;;;;34.40;20.35;;;7.40;99.90;;;;;;5016920;28;20057;-80
2022/03/13 00:55:14;;;;;;;34.67;18.55;;;7.30;99.90;;;;;;5016524;28;20045;-81
2022/03/13 00:57:43;;;;;;;36.55;19.73;;;7.40;99.90;;;;;;5016548;28;20037;-81
2022/03/13 01:00:10;;;;;;;30.77;17.98;;;7.30;99.90;;;;;;5034235;28;20056;-80
2022/03/13 01:02:37;;;;;;;33.90;18.98;;;7.40;99.90;;;;;;5016403;28;20045;-81
2022/03/13 01:05:03;;;;;;;33.17;17.42;;;7.30;99.90;;;;;;5016399;28;20057;-80
2022/03/13 01:07:29;;;;;;;30.30;18.77;;;7.30;99.90;;;;;;5016339;28;20052;-81
2022/03/13 01:09:55;;;;;;;37.60;19.50;;;7.30;99.90;;;;;;5016271;28;20041;-80
2022/03/13 01:12:21;;;;;;;34.10;18.98;;;7.30;99.90;;;;;;5016078;28;20099;-80
2022/03/13 01:14:47;;;;;;;39.83;20.55;;;7.30;99.90;;;;;;5016034;28;20045;-80
2022/03/13 01:17:12;;;;;;;38.72;20.35;;;7.30;99.90;;;;;;5016282;28;20049;-81
2022/03/13 01:19:38;;;;;;;35.85;19.05;;;7.20;99.90;;;;;;5033794;28;20048;-81
2022/03/13 01:22:05;;;;;;;35.42;19.42;;;7.20;99.90;;;;;;5033838;28;20045;-80
2022/03/13 01:24:32;;;;;;;39.83;20.98;;;7.20;99.90;;;;;;5033757;28;20543;-81
2022/03/13 01:27:02;;;;;;;33.42;18.73;;;7.20;99.90;;;;;;5033680;28;20095;-81
2022/03/13 01:29:32;;;;;;;38.28;20.65;;;7.20;99.90;;;;;;5033360;28;20061;-81
2022/03/13 01:31:58;;;;;;;33.92;19.95;;;7.20;99.90;;;;;;5016248;28;20493;-81
2022/03/13 01:34:34;;;;;;;36.58;19.65;;;7.20;99.90;;;;;;5033616;28;20037;-81
2022/03/13 01:37:04;;;;;;;32.53;19.42;;;7.20;99.90;;;;;;5033706;28;20049;-81
2022/03/13 01:39:29;;;;;;;37.05;20.13;;;7.20;99.90;;;;;;5033587;28;20045;-82
2022/03/13 01:41:55;;;;;;;36.38;20.20;;;7.20;99.90;;;;;;5033798;28;20049;-81
2022/03/13 01:44:21;;;;;;;38.38;20.15;;;7.30;99.90;;;;;;5015807;28;20473;-81
2022/03/13 01:46:48;;;;;;;37.38;21.45;;;7.20;99.90;;;;;;5033540;28;20552;-81
2022/03/13 01:49:13;;;;;;;41.25;20.75;;;7.30;99.90;;;;;;5033534;28;20132;-81
2022/03/13 01:51:39;;;;;;;34.63;19.25;;;7.20;99.90;;;;;;5034474;28;20120;-81
2022/03/13 01:54:11;;;;;;;37.38;21.00;;;7.20;99.90;;;;;;5020046;28;20046;-81
2022/03/13 01:56:38;;;;;;;37.15;19.58;;;7.20;99.90;;;;;;5037437;28;20499;-81
2022/03/13 01:59:06;;;;;;;36.25;19.67;;;7.20;99.90;;;;;;5037465;28;20045;-81
2022/03/13 02:01:33;;;;;;;36.53;20.77;;;7.20;99.90;;;;;;5020084;28;20107;-81
2022/03/13 02:03:58;;;;;;;37.10;20.25;;;7.20;99.90;;;;;;5037368;28;20038;-81
2022/03/13 02:06:24;;;;;;;34.50;19.13;;;7.10;99.90;;;;;;5037463;28;20095;-81
2022/03/13 02:08:51;;;;;;;35.42;19.95;;;7.10;99.90;;;;;;5019533;28;20408;-81
2022/03/13 02:11:21;;;;;;;36.65;19.25;;;7.20;99.90;;;;;;5037067;28;20041;-81
2022/03/13 02:13:49;;;;;;;38.53;21.02;;;7.20;99.90;;;;;;5037456;28;20099;-81
2022/03/13 02:16:17;;;;;;;36.53;20.38;;;7.10;99.90;;;;;;5019634;28;20449;-81
2022/03/13 02:18:47;;;;;;;34.50;19.88;;;7.10;99.90;;;;;;5037150;28;20056;-80
2022/03/13 02:21:14;;;;;;;36.30;20.75;;;7.10;99.90;;;;;;5019715;28;20053;-81
2022/03/13 02:23:41;;;;;;;36.53;19.63;;;7.10;99.90;;;;;;5036926;28;20384;-81
2022/03/13 02:26:07;;;;;;;38.85;20.90;;;7.10;99.90;;;;;;5037106;28;20128;-81
2022/03/13 02:28:35;;;;;;;37.63;22.95;;;7.10;99.90;;;;;;5036059;28;20073;-81
2022/03/13 02:31:12;;;;;;;37.88;20.95;;;7.10;99.90;;;;;;5035405;28;20511;-80
2022/03/13 02:33:39;;;;;;;42.60;19.98;;;7.10;99.90;;;;;;5035517;28;20089;-81
2022/03/13 02:36:12;;;;;;;37.92;21.63;;;7.10;99.90;;;;;;5035740;28;20064;-81
2022/03/13 02:38:39;;;;;;;41.90;21.60;;;7.00;99.90;;;;;;5035589;28;20041;-81
2022/03/13 02:41:05;;;;;;;36.00;20.50;;;7.00;99.90;;;;;;5017798;28;20195;-81
2022/03/13 02:43:30;;;;;;;40.28;22.48;;;7.00;99.90;;;;;;5017588;28;20441;-81
2022/03/13 02:45:57;;;;;;;39.78;22.33;;;7.00;99.90;;;;;;5035486;28;20192;-81
2022/03/13 02:48:22;;;;;;;38.50;22.80;;;7.00;99.90;;;;;;5017871;28;20068;-81
2022/03/13 02:50:48;;;;;;;42.58;23.00;;;6.90;99.90;;;;;;5035422;28;20408;-81
2022/03/13 02:53:17;;;;;;;40.83;21.98;;;6.90;99.90;;;;;;5035369;28;20425;-81
2022/03/13 02:55:44;;;;;;;40.15;21.50;;;6.90;99.90;;;;;;5035424;28;20044;-80
2022/03/13 02:58:10;;;;;;;41.05;22.42;;;7.00;99.90;;;;;;5035185;28;20073;-81
2022/03/13 03:00:49;;;;;;;39.97;22.63;;;6.90;99.90;;;;;;5017297;28;20049;-77
2022/03/13 03:03:20;;;;;;;41.20;22.50;;;6.90;99.90;;;;;;5033896;28;20061;-77
2022/03/13 03:05:47;;;;;;;40.72;21.13;;;6.90;99.90;;;;;;5035240;28;20069;-79
2022/03/13 03:08:13;;;;;;;39.00;21.35;;;6.90;99.90;;;;;;5034956;28;20042;-81
2022/03/13 03:10:39;;;;;;;38.33;19.85;;;6.90;99.90;;;;;;5017333;28;20048;-81
2022/03/13 03:13:07;;;;;;;43.83;23.33;;;6.90;99.90;;;;;;5034861;28;20041;-82
2022/03/13 03:15:32;;;;;;;41.33;23.17;;;6.90;99.90;;;;;;5034974;28;20045;-82
2022/03/13 03:17:58;;;;;;;42.33;23.10;;;6.90;99.90;;;;;;5017179;28;20060;-81
2022/03/13 03:20:24;;;;;;;41.13;21.50;;;6.90;99.90;;;;;;5017173;28;20136;-81
2022/03/13 03:22:51;;;;;;;43.85;22.45;;;6.90;99.90;;;;;;5017489;28;20104;-81
2022/03/13 03:25:24;;;;;;;41.03;22.65;;;6.90;99.90;;;;;;5034554;28;20092;-81
2022/03/13 03:27:56;;;;;;;40.80;22.48;;;6.90;99.90;;;;;;4995253;28;1143356;-81
2022/03/13 03:30:25;;;;;;;43.80;22.83;;;6.90;99.90;;;;;;5035894;28;20045;-80
2022/03/13 03:32:52;;;;;;;44.85;24.10;;;6.90;99.90;;;;;;5035656;28;20045;-80
2022/03/13 03:35:20;;;;;;;41.45;22.48;;;6.90;99.90;;;;;;5035872;28;20076;-81
2022/03/13 03:37:46;;;;;;;40.83;23.48;;;6.90;99.90;;;;;;5035630;28;20128;-80
2022/03/13 03:40:12;;;;;;;43.97;23.70;;;7.00;99.90;;;;;;5017717;28;20045;-79
2022/03/13 03:42:39;;;;;;;43.03;22.83;;;6.90;99.90;;;;;;5035684;28;20049;-80
2022/03/13 03:45:06;;;;;;;44.78;24.20;;;6.90;99.90;;;;;;5035423;28;20038;-80
2022/03/13 03:47:31;;;;;;;49.38;24.17;;;7.00;99.90;;;;;;5018068;28;20481;-80
2022/03/13 03:49:57;;;;;;;51.30;24.77;;;7.00;99.90;;;;;;5018094;28;20100;-80
2022/03/13 03:52:23;;;;;;;42.50;22.60;;;6.90;99.90;;;;;;5017965;28;20392;-80
2022/03/13 03:54:49;;;;;;;41.13;22.25;;;7.00;99.90;;;;;;5035498;28;20069;-80
2022/03/13 03:57:14;;;;;;;46.63;23.85;;;6.90;99.90;;;;;;5017485;28;20469;-80
2022/03/13 03:59:40;;;;;;;46.90;24.05;;;7.00;99.90;;;;;;5035547;28;20583;-80
2022/03/13 04:02:05;;;;;;;52.95;24.08;;;7.00;99.90;;;;;;5035279;28;20049;-80
2022/03/13 04:04:31;;;;;;;43.28;24.20;;;7.00;99.90;;;;;;5017458;28;20052;-80
2022/03/13 04:06:57;;;;;;;47.95;25.17;;;7.00;99.90;;;;;;5017497;28;20115;-81
2022/03/13 04:09:22;;;;;;;45.13;23.98;;;7.00;99.90;;;;;;5017246;28;20485;-81
2022/03/13 04:11:48;;;;;;;46.13;22.98;;;7.00;99.90;;;;;;5017504;28;20063;-81
2022/03/13 04:14:14;;;;;;;45.47;23.65;;;7.00;99.90;;;;;;5017180;28;20049;-80
2022/03/13 04:16:41;;;;;;;44.65;23.38;;;7.00;99.90;;;;;;5034957;28;20033;-80
2022/03/13 04:19:09;;;;;;;46.92;24.52;;;7.00;99.90;;;;;;5017488;28;20049;-80
2022/03/13 04:21:41;;;;;;;48.05;24.55;;;7.00;99.90;;;;;;5034777;28;20045;-79
2022/03/13 04:24:14;;;;;;;41.00;24.42;;;7.00;99.90;;;;;;5034812;28;20041;-80
2022/03/13 04:26:40;;;;;;;49.42;24.67;;;7.00;99.90;;;;;;5034875;28;20042;-78
2022/03/13 04:29:09;;;;;;;48.40;25.52;;;7.00;99.90;;;;;;5016712;28;20062;-81
2022/03/13 04:31:42;;;;;;;48.85;23.23;;;7.00;99.90;;;;;;5017240;28;20124;-77
2022/03/13 04:34:08;;;;;;;44.33;24.30;;;7.00;99.90;;;;;;5034430;28;20120;-77
2022/03/13 04:36:37;;;;;;;46.95;26.42;;;7.00;99.90;;;;;;5034642;28;20128;-81
2022/03/13 04:39:04;;;;;;;49.55;25.02;;;7.00;99.90;;;;;;5016948;28;20385;-82
2022/03/13 04:41:29;;;;;;;52.03;25.33;;;7.00;99.90;;;;;;5017033;28;20107;-82
2022/03/13 04:43:55;;;;;;;50.50;25.17;;;7.00;99.90;;;;;;5034506;28;20045;-82
2022/03/13 04:46:21;;;;;;;49.20;25.48;;;7.00;99.90;;;;;;5016914;28;20095;-81
2022/03/13 04:48:48;;;;;;;47.53;24.92;;;6.90;99.90;;;;;;5034179;28;20405;-80
2022/03/13 04:51:13;;;;;;;46.15;24.80;;;6.90;99.90;;;;;;5034383;28;20123;-80
2022/03/13 04:53:39;;;;;;;47.63;25.40;;;6.90;99.90;;;;;;5016921;28;20077;-80
2022/03/13 04:56:05;;;;;;;48.45;25.27;;;6.80;99.90;;;;;;5016460;28;20095;-81
2022/03/13 04:58:31;;;;;;;51.13;25.25;;;6.80;99.90;;;;;;5034035;28;20088;-80
2022/03/13 05:00:57;;;;;;;48.45;23.50;;;6.80;99.90;;;;;;5034034;28;20037;-80
2022/03/13 05:03:23;;;;;;;51.72;26.08;;;6.80;99.90;;;;;;5034128;28;20052;-80
2022/03/13 05:05:49;;;;;;;54.53;26.83;;;6.70;99.90;;;;;;5016455;28;20060;-80
2022/03/13 05:08:15;;;;;;;46.10;26.45;;;6.70;99.90;;;;;;5034124;28;20049;-79
2022/03/13 05:10:45;;;;;;;52.47;26.60;;;6.70;99.90;;;;;;5034070;28;20037;-80
2022/03/13 05:13:14;;;;;;;50.60;25.73;;;6.60;99.90;;;;;;5016353;28;20053;-81
2022/03/13 05:15:41;;;;;;;56.67;24.52;;;6.60;99.90;;;;;;5033924;28;20120;-80
2022/03/13 05:18:07;;;;;;;49.22;25.90;;;6.60;99.90;;;;;;5015974;28;20045;-80
2022/03/13 05:20:34;;;;;;;50.65;26.38;;;6.60;99.90;;;;;;5033747;28;20080;-80
2022/03/13 05:23:04;;;;;;;49.90;25.17;;;6.60;99.90;;;;;;5016118;28;20532;-81
2022/03/13 05:25:31;;;;;;;49.08;24.63;;;6.60;99.90;;;;;;5033701;28;20045;-81
2022/03/13 05:27:57;;;;;;;50.85;25.40;;;6.60;99.90;;;;;;5015067;28;20409;-81
2022/03/13 05:30:24;;;;;;;52.67;25.67;;;6.60;99.90;;;;;;5016356;28;20049;-77
2022/03/13 05:32:49;;;;;;;51.30;26.23;;;6.60;99.90;;;;;;5033432;28;20485;-77
2022/03/13 05:35:16;;;;;;;52.80;26.17;;;6.60;99.90;;;;;;5033854;28;20053;-77
2022/03/13 05:37:42;;;;;;;54.13;26.05;;;6.50;99.90;;;;;;5016246;28;20473;-77
2022/03/13 05:40:13;;;;;;;50.55;25.80;;;6.50;99.90;;;;;;5033590;28;20055;-77
2022/03/13 05:42:44;;;;;;;53.42;26.70;;;6.50;99.90;;;;;;5015840;28;20048;-77
2022/03/13 05:45:11;;;;;;;52.80;25.58;;;6.40;99.90;;;;;;5033258;28;20152;-77
2022/03/13 05:47:44;;;;;;;49.25;26.52;;;6.40;99.90;;;;;;5032478;28;20128;-77
2022/03/13 05:50:09;;;;;;;57.70;25.67;;;6.40;99.90;;;;;;5033214;28;20084;-77
2022/03/13 05:52:35;;;;;;;53.80;25.88;;;6.40;99.90;;;;;;5015746;28;20073;-77
2022/03/13 05:55:01;;;;;;;53.25;26.33;;;6.30;99.90;;;;;;5033481;28;20041;-77
2022/03/13 05:57:26;;;;;;;54.65;26.33;;;6.30;99.90;;;;;;5033083;28;20041;-77
2022/03/13 05:59:52;;;;;;;57.17;27.15;;;6.30;99.90;;;;;;5015530;28;20543;-77
2022/03/13 06:02:20;;;;;;;52.90;25.45;;;6.30;99.90;;;;;;5015524;28;20057;-77
2022/03/13 06:04:46;;;;;;;55.63;26.77;;;6.30;99.90;;;;;;5033379;28;20077;-77
2022/03/13 06:07:12;;;;;;;50.85;25.60;;;6.30;99.90;;;;;;5033475;28;20081;-77
2022/03/13 06:09:37;;;;;;;52.17;27.00;;;6.30;99.90;;;;;;5033251;28;20049;-77
2022/03/13 06:12:03;;;;;;;50.92;24.92;;;6.20;99.90;;;;;;5015450;28;20045;-77
2022/03/13 06:14:29;;;;;;;49.97;26.85;;;6.20;99.90;;;;;;5015678;28;20054;-77
2022/03/13 06:16:54;;;;;;;51.70;26.90;;;6.20;99.90;;;;;;5033377;28;20394;-77
2022/03/13 06:19:20;;;;;;;50.88;26.02;;;6.20;99.90;;;;;;5033230;28;20052;-77
2022/03/13 06:21:48;;;;;;;53.83;26.25;;;6.30;99.90;;;;;;5033320;28;20040;-77
2022/03/13 06:24:14;;;;;;;49.53;27.20;;;6.20;99.90;;;;;;5015088;28;20053;-77
2022/03/13 06:26:39;;;;;;;52.72;24.10;;;6.20;99.90;;;;;;5033184;28;20055;-77
2022/03/13 06:29:05;;;;;;;51.53;25.55;;;6.20;99.90;;;;;;5015203;28;20404;-77
2022/03/13 06:31:31;;;;;;;52.28;25.05;;;6.20;99.90;;;;;;5033042;28;20049;-77
2022/03/13 06:33:56;;;;;;;47.55;25.15;;;6.20;99.90;;;;;;5015695;28;20076;-77
2022/03/13 06:36:22;;;;;;;50.50;25.45;;;6.20;99.90;;;;;;5015494;28;20049;-77
2022/03/13 06:38:48;;;;;;;55.30;25.88;;;6.20;99.90;;;;;;5035483;28;20118;-77
2022/03/13 06:41:17;;;;;;;49.72;25.95;;;6.20;99.90;;;;;;5036467;28;20568;-77
2022/03/13 06:43:42;;;;;;;49.53;24.50;;;6.20;99.90;;;;;;5036707;28;20042;-77
2022/03/13 06:46:08;;;;;;;52.53;25.95;;;6.20;99.90;;;;;;5018899;28;20451;-77
2022/03/13 06:48:34;;;;;;;52.78;25.08;;;6.10;99.90;;;;;;5018616;28;20087;-78
2022/03/13 06:51:00;;;;;;;52.03;23.70;;;6.10;99.90;;;;;;5018541;28;20140;-77
2022/03/13 06:53:25;;;;;;;50.13;25.77;;;6.20;99.90;;;;;;5018379;28;20504;-77
2022/03/13 06:55:52;;;;;;;51.28;24.65;;;6.20;99.90;;;;;;5018475;28;20049;-79
2022/03/13 06:58:21;;;;;;;51.75;25.75;;;6.20;99.90;;;;;;5036350;28;20045;-77
2022/03/13 07:00:47;;;;;;;49.28;25.35;;;6.20;99.90;;;;;;5018472;28;20099;-77
2022/03/13 07:03:13;;;;;;;54.83;25.60;;;6.20;99.90;;;;;;5036079;28;20049;-78
2022/03/13 07:05:40;;;;;;;48.38;24.65;;;6.20;99.90;;;;;;5018323;28;20425;-77
2022/03/13 07:08:06;;;;;;;50.53;26.40;;;6.30;99.90;;;;;;5035861;28;20088;-77
2022/03/13 07:10:32;;;;;;;50.17;25.45;;;6.30;99.90;;;;;;5018469;28;20085;-77
2022/03/13 07:12:59;;;;;;;52.03;25.33;;;6.30;99.90;;;;;;5036127;28;20370;-77
2022/03/13 07:15:26;;;;;;;50.20;23.80;;;6.30;99.90;;;;;;5035813;28;20374;-79
2022/03/13 07:17:53;;;;;;;51.47;23.48;;;6.40;99.90;;;;;;5036032;28;20053;-78
2022/03/13 07:20:19;;;;;;;43.28;22.75;;;6.40;99.90;;;;;;5017880;28;20056;-78
2022/03/13 07:22:45;;;;;;;47.20;26.35;;;6.40;99.90;;;;;;5035920;28;20042;-78
2022/03/13 07:25:11;;;;;;;45.97;22.98;;;6.50;99.90;;;;;;5035962;28;20049;-78
2022/03/13 07:27:38;;;;;;;63.08;27.25;;;6.60;99.90;;;;;;5017712;28;20489;-78
2022/03/13 07:30:05;;;;;;;67.97;28.52;;;6.60;99.90;;;;;;5018128;28;20072;-79
2022/03/13 07:32:31;;;;;;;50.38;23.67;;;6.60;99.90;;;;;;5017929;28;20366;-79
2022/03/13 07:34:57;;;;;;;47.53;24.33;;;6.70;99.90;;;;;;5017810;28;20131;-78
2022/03/13 07:37:22;;;;;;;47.78;25.60;;;6.70;99.90;;;;;;5035445;28;20045;-78
2022/03/13 07:39:48;;;;;;;49.20;24.70;;;6.80;99.90;;;;;;5035600;28;20069;-78
2022/03/13 07:42:16;;;;;;;48.10;24.55;;;6.80;99.90;;;;;;5035538;28;20080;-78
2022/03/13 07:44:42;;;;;;;46.53;24.05;;;6.80;99.90;;;;;;5017542;28;20459;-78
2022/03/13 07:47:08;;;;;;;49.28;25.55;;;6.90;99.90;;;;;;5017638;28;20139;-78
2022/03/13 07:49:34;;;;;;;47.70;22.83;;;6.90;99.90;;;;;;5034511;28;20056;-78
2022/03/13 07:52:00;;;;;;;50.70;22.25;;;7.00;99.90;;;;;;5035122;28;20076;-78
2022/03/13 07:54:26;;;;;;;43.90;22.85;;;7.00;99.90;;;;;;5035398;28;20056;-78
2022/03/13 07:56:51;;;;;;;47.85;23.00;;;7.00;99.90;;;;;;5035287;28;20116;-78
2022/03/13 07:59:17;;;;;;;47.35;23.60;;;7.10;99.90;;;;;;5035295;28;20075;-78
2022/03/13 08:01:43;;;;;;;46.70;23.08;;;7.10;99.90;;;;;;5035302;28;20041;-78
2022/03/13 08:04:08;;;;;;;45.22;22.85;;;7.20;99.90;;;;;;5017358;28;20103;-78
2022/03/13 08:06:35;;;;;;;45.15;21.77;;;7.20;99.90;;;;;;5035074;28;20132;-78
2022/03/13 08:09:03;;;;;;;43.80;22.63;;;7.20;99.90;;;;;;5035078;28;20063;-78
2022/03/13 08:11:28;;;;;;;41.70;20.63;;;7.30;99.90;;;;;;5034765;28;20497;-78
2022/03/13 08:13:54;;;;;;;46.55;21.02;;;7.40;99.90;;;;;;5017093;28;20045;-78
2022/03/13 08:16:20;;;;;;;47.25;25.45;;;7.40;99.90;;;;;;5016984;28;20088;-78
2022/03/13 08:18:45;;;;;;;47.95;23.15;;;7.40;99.90;;;;;;5017154;28;20057;-78
2022/03/13 08:21:12;;;;;;;45.50;24.23;;;7.40;99.90;;;;;;5016820;28;20204;-78
2022/03/13 08:23:38;;;;;;;43.72;22.20;;;7.40;99.90;;;;;;5034778;28;20061;-78
2022/03/13 08:26:04;;;;;;;48.70;22.88;;;7.40;99.90;;;;;;5016900;28;20064;-78
2022/03/13 08:28:30;;;;;;;50.65;25.05;;;7.50;99.90;;;;;;5016779;28;20060;-78
2022/03/13 08:30:56;;;;;;;42.20;22.00;;;7.50;99.90;;;;;;5034327;28;20050;-78
2022/03/13 08:33:21;;;;;;;47.65;23.63;;;7.50;99.90;;;;;;5034485;28;20038;-78
2022/03/13 08:35:47;;;;;;;60.63;29.90;;;7.50;99.90;;;;;;5016784;28;20422;-78
2022/03/13 08:38:13;;;;;;;47.08;24.63;;;7.50;99.90;;;;;;5016605;28;20068;-78
2022/03/13 08:40:38;;;;;;;48.28;21.98;;;7.50;99.90;;;;;;5034125;28;20049;-78
2022/03/13 08:43:05;;;;;;;46.33;25.00;;;7.50;99.90;;;;;;5034449;28;20477;-81
2022/03/13 08:45:31;;;;;;;48.67;23.88;;;7.50;99.90;;;;;;4993212;28;20050;-78
2022/03/13 08:47:57;;;;;;;42.95;22.23;;;7.50;99.90;;;;;;4995523;28;20078;-79
2022/03/13 08:50:24;;;;;;;45.17;22.90;;;7.60;99.90;;;;;;4994760;28;20529;-78
2022/03/13 08:52:49;;;;;;;44.42;23.30;;;7.60;99.90;;;;;;4994814;28;20053;-78
2022/03/13 08:55:17;;;;;;;41.75;22.67;;;7.60;99.90;;;;;;4977050;28;20050;-78
2022/03/13 08:57:44;;;;;;;48.72;22.27;;;7.60;99.90;;;;;;4994548;28;20042;-80
2022/03/13 09:00:14;;;;;;;38.75;21.38;;;7.70;99.90;;;;;;4976989;28;20051;-78
2022/03/13 09:02:40;;;;;;;43.42;20.35;;;7.80;99.90;;;;;;4994254;28;20544;-78
2022/03/13 09:05:06;;;;;;;45.90;22.70;;;8.00;99.90;;;;;;4994508;28;20042;-78
2022/03/13 09:07:32;;;;;;;40.20;21.08;;;8.10;99.90;;;;;;4976854;28;20042;-78
2022/03/13 09:09:58;;;;;;;40.45;21.40;;;8.20;99.90;;;;;;4994507;28;20038;-78
2022/03/13 09:12:24;;;;;;;46.08;20.83;;;8.40;99.90;;;;;;4994198;28;20053;-80
2022/03/13 09:14:50;;;;;;;39.53;20.70;;;8.50;99.90;;;;;;4976739;28;20039;-79
2022/03/13 09:17:17;;;;;;;38.45;20.20;;;8.60;99.90;;;;;;4994320;28;20085;-79
2022/03/13 09:19:43;;;;;;;44.97;21.83;;;8.70;99.90;;;;;;4994340;28;20053;-79
2022/03/13 09:22:09;;;;;;;41.08;20.38;;;8.80;99.90;;;;;;4976605;28;20050;-80
2022/03/13 09:24:35;;;;;;;38.28;19.60;;;8.90;99.90;;;;;;4994269;28;20117;-79
2022/03/13 09:27:00;;;;;;;37.72;19.65;;;9.20;99.90;;;;;;4994032;28;20042;-79
2022/03/13 09:29:26;;;;;;;38.60;20.38;;;9.50;99.90;;;;;;4976422;28;20050;-83
2022/03/13 09:31:52;;;;;;;37.20;19.95;;;9.80;99.90;;;;;;4976644;28;20540;-84
2022/03/13 09:34:17;;;;;;;34.13;19.83;;;10.00;99.90;;;;;;4976551;28;20389;-82
2022/03/13 09:36:43;;;;;;;37.83;18.58;;;10.20;99.90;;;;;;4985228;28;20096;-81
2022/03/13 09:39:09;;;;;;;40.17;20.13;;;10.40;99.90;;;;;;5013417;28;20481;-82
2022/03/13 09:41:37;;;;;;;36.00;19.00;;;10.60;99.90;;;;;;4995393;28;20390;-83
2022/03/13 09:44:04;;;;;;;36.78;21.15;;;10.80;99.90;;;;;;4995963;28;20069;-83
2022/03/13 09:46:30;;;;;;;31.52;19.63;;;10.90;99.90;;;;;;5013196;28;20070;-83
2022/03/13 09:48:56;;;;;;;36.35;20.42;;;11.10;99.90;;;;;;5013403;28;20081;-82
2022/03/13 09:51:21;;;;;;;36.50;19.00;;;11.30;99.90;;;;;;4996070;28;20046;-83
2022/03/13 09:53:47;;;;;;;37.85;19.48;;;11.50;99.90;;;;;;4995234;28;20045;-81
2022/03/13 09:56:13;;;;;;;37.35;18.88;;;11.60;99.90;;;;;;5013301;28;20046;-80
2022/03/13 09:58:40;;;;;;;36.17;19.50;;;11.80;99.90;;;;;;4995389;28;20056;-80
2022/03/13 10:01:07;;;;;;;42.28;21.48;;;11.80;99.90;;;;;;5012966;28;20049;-80
2022/03/13 10:03:33;;;;;;;39.60;21.77;;;12.00;99.90;;;;;;5013364;28;20049;-81
2022/03/13 10:06:02;;;;;;;39.40;20.80;;;12.10;99.80;;;;;;5013124;28;20460;-81
2022/03/13 10:08:30;;;;;;;38.22;20.88;;;12.10;99.50;;;;;;4995050;28;20393;-81
2022/03/13 10:10:57;;;;;;;38.00;19.48;;;12.30;99.90;;;;;;5013997;28;20053;-80
2022/03/13 10:13:45;;;;;;;45.00;21.40;;;12.40;99.90;;;;;;5022457;28;20552;-80
2022/03/13 10:16:20;;;;;;;37.33;19.83;;;12.60;97.40;;;;;;5027280;28;20056;-79
2022/03/13 10:18:46;;;;;;;39.90;20.55;;;12.70;99.90;;;;;;5027325;28;20084;-81
2022/03/13 10:21:16;;;;;;;41.80;22.17;;;12.70;97.20;;;;;;4999462;28;20057;-80
2022/03/13 10:23:42;;;;;;;35.88;19.90;;;12.70;96.60;;;;;;4998971;28;20549;-79
2022/03/13 10:26:09;;;;;;;36.72;19.67;;;12.60;96.70;;;;;;5000822;28;20138;-79
2022/03/13 10:28:40;;;;;;;39.45;22.20;;;12.80;98.50;;;;;;4998766;28;20053;-78
2022/03/13 10:31:07;;;;;;;37.30;22.02;;;12.80;95.10;;;;;;4998662;28;20058;-79
2022/03/13 10:33:52;;;;;;;38.05;22.02;;;12.90;96.90;;;;;;5006337;28;20400;-79
2022/03/13 10:36:33;;;;;;;42.10;20.52;;;12.90;96.80;;;;;;5034072;28;20049;-79
2022/03/13 10:39:02;;;;;;;38.08;20.95;;;13.10;95.20;;;;;;4997850;28;20053;-79
2022/03/13 10:41:44;;;;;;;36.78;20.40;;;13.10;96.20;;;;;;4998942;28;20052;-79
2022/03/13 10:44:34;;;;;;;41.80;22.42;;;13.20;94.00;;;;;;4998450;28;20060;-79
2022/03/13 10:47:10;;;;;;;40.45;21.73;;;13.20;96.70;;;;;;4979712;28;20050;-78
2022/03/13 10:49:42;;;;;;;38.28;21.10;;;13.40;95.90;;;;;;4990422;28;20121;-79
2022/03/13 10:52:30;;;;;;;40.55;21.77;;;13.50;94.10;;;;;;5035850;28;20046;-79
2022/03/13 10:55:14;;;;;;;41.08;22.38;;;13.60;93.10;;;;;;5018368;28;20536;-79
2022/03/13 10:58:00;;;;;;;39.00;21.73;;;13.50;91.90;;;;;;5018375;28;20056;-81
2022/03/13 11:00:27;;;;;;;39.20;21.45;;;13.60;94.20;;;;;;5018537;28;20046;-81
2022/03/13 11:03:08;;;;;;;40.35;21.25;;;13.80;94.40;;;;;;5018693;28;20042;-81
2022/03/13 11:05:34;;;;;;;43.58;22.17;;;13.90;92.70;;;;;;5035820;28;20037;-81
2022/03/13 11:08:00;;;;;;;40.45;21.92;;;14.00;91.20;;;;;;5004116;28;20478;-81
2022/03/13 11:10:26;;;;;;;42.95;22.38;;;14.20;91.50;;;;;;5016160;28;20050;-81
2022/03/13 11:12:52;;;;;;;38.42;21.52;;;14.30;91.60;;;;;;5015975;28;20081;-81
2022/03/13 11:15:18;;;;;;;43.58;23.52;;;14.30;91.60;;;;;;4997884;28;20507;-80
2022/03/13 11:17:46;;;;;;;39.60;21.38;;;14.20;90.60;;;;;;4998286;28;20133;-80
2022/03/13 11:20:13;;;;;;;39.83;22.23;;;14.30;89.70;;;;;;4997633;28;20440;-80
2022/03/13 11:22:38;;;;;;;35.75;21.63;;;14.40;88.30;;;;;;4998042;28;20046;-80
2022/03/13 11:25:07;;;;;;;40.40;22.45;;;14.30;91.30;;;;;;5013911;28;20049;-79
2022/03/13 11:27:38;;;;;;;41.55;22.88;;;14.50;88.70;;;;;;5015485;28;20046;-80
2022/03/13 11:30:06;;;;;;;42.92;23.52;;;14.60;87.60;;;;;;5015371;28;20042;-80
2022/03/13 11:32:45;;;;;;;44.47;22.50;;;14.70;88.90;;;;;;4998182;28;20141;-79
2022/03/13 11:35:19;;;;;;;38.17;21.73;;;14.70;86.30;;;;;;5015169;28;20049;-78
2022/03/13 11:37:50;;;;;;;39.33;21.33;;;14.80;86.70;;;;;;5011486;28;20046;-78
2022/03/13 11:40:31;;;;;;;41.20;22.67;;;14.70;86.00;;;;;;4998184;28;20046;-78
2022/03/13 11:43:21;;;;;;;40.15;21.58;;;14.80;90.60;;;;;;4997315;28;20101;-78
2022/03/13 11:45:56;;;;;;;37.53;21.15;;;14.90;85.00;;;;;;5012463;28;20054;-79
2022/03/13 11:48:22;;;;;;;40.58;22.30;;;15.00;88.90;;;;;;4996475;28;20769;-80
2022/03/13 11:50:51;;;;;;;40.63;21.42;;;15.10;82.70;;;;;;4995907;28;20066;-79
2022/03/13 11:53:19;;;;;;;37.97;20.45;;;15.10;83.60;;;;;;5015153;28;20042;-80
2022/03/13 11:56:00;;;;;;;38.50;20.48;;;15.20;88.80;;;;;;5014808;28;20084;-80
2022/03/13 11:58:46;;;;;;;39.90;21.08;;;15.40;82.30;;;;;;4997697;28;20050;-80
2022/03/13 12:01:20;;;;;;;40.35;19.92;;;15.40;82.30;;;;;;5015401;28;20050;-80
2022/03/13 12:04:02;;;;;;;39.42;20.40;;;15.50;85.40;;;;;;4997046;28;20046;-80
2022/03/13 12:06:56;;;;;;;33.13;18.83;;;15.60;83.90;;;;;;5015048;28;20057;-80
2022/03/13 12:09:44;;;;;;;40.03;20.45;;;15.70;79.20;;;;;;4997429;28;20501;-80
2022/03/13 12:12:13;;;;;;;36.97;19.73;;;15.60;77.10;;;;;;4997646;28;20528;-81
2022/03/13 12:15:02;;;;;;;36.22;19.80;;;15.60;78.50;;;;;;5015198;28;20121;-81
2022/03/13 12:17:47;;;;;;;34.28;18.50;;;15.60;75.90;;;;;;4997759;28;20057;-81
2022/03/13 12:20:24;;;;;;;37.40;19.10;;;15.70;83.60;;;;;;5014936;28;20077;-81
2022/03/13 12:22:54;;;;;;;38.05;18.42;;;15.50;76.90;;;;;;4997116;28;20133;-80
2022/03/13 12:25:30;;;;;;;33.28;18.42;;;15.50;80.90;;;;;;4997324;28;20469;-80
2022/03/13 12:28:05;;;;;;;34.13;17.98;;;15.60;78.20;;;;;;4997052;28;20464;-80
2022/03/13 12:30:34;;;;;;;32.90;18.33;;;15.70;78.00;;;;;;4997420;28;20107;-80
2022/03/13 12:33:05;;;;;;;34.92;18.70;;;15.60;75.90;;;;;;5021408;28;20049;-78
2022/03/13 12:35:32;;;;;;;36.50;19.73;;;15.70;77.70;;;;;;5016296;28;20100;-80
2022/03/13 12:38:00;;;;;;;32.75;19.58;;;15.70;74.70;;;;;;5016953;28;20053;-78